sensor_id;sensor_type;location;lat;lon;timestamp;P1;durP1;ratioP1;P2;durP2;ratioP2
45368;SDS011;51342;55.250;37.668;2024-01-15T00:04:07;15.53;;;8.30;;
45368;SDS011;51342;55.250;37.668;2024-01-15T00:06:39;19.57;;;8.40;;
45368;SDS011;51342;55.250;37.668;2024-01-15T00:09:10;18.20;;;8.13;;
45368;SDS011;51342;55.250;37.668;2024-01-15T00:11:42;17.07;;;7.90;;
45368;SDS011;51342;55.250;37.668;2024-01-15T00:14:14;16.43;;;8.03;;
45368;SDS011;51342;55.250;37.668;2024-01-15T00:16:50;19.38;;;8.68;;
45368;SDS011;51342;55.250;37.668;2024-01-15T00:19:22;16.43;;;7.80;;
45368;SDS011;51342;55.250;37.668;2024-01-15T00:21:54;17.67;;;8.33;;
45368;SDS011;51342;55.250;37.668;2024-01-15T00:24:26;20.50;;;9.13;;
45368;SDS011;51342;55.250;37.668;2024-01-15T00:26:57;17.77;;;8.67;;
45368;SDS011;51342;55.250;37.668;2024-01-15T00:29:29;17.97;;;8.93;;
45368;SDS011;51342;55.250;37.668;2024-01-15T00:32:00;18.20;;;8.93;;
45368;SDS011;51342;55.250;37.668;2024-01-15T00:34:31;18.17;;;8.53;;
45368;SDS011;51342;55.250;37.668;2024-01-15T00:37:03;19.30;;;9.37;;
45368;SDS011;51342;55.250;37.668;2024-01-15T00:39:37;17.80;;;8.43;;
45368;SDS011;51342;55.250;37.668;2024-01-15T00:42:09;19.90;;;8.87;;
45368;SDS011;51342;55.250;37.668;2024-01-15T00:44:41;17.87;;;8.37;;
45368;SDS011;51342;55.250;37.668;2024-01-15T00:47:13;21.30;;;9.43;;
45368;SDS011;51342;55.250;37.668;2024-01-15T00:49:44;20.33;;;8.80;;
45368;SDS011;51342;55.250;37.668;2024-01-15T00:52:16;20.73;;;9.73;;
45368;SDS011;51342;55.250;37.668;2024-01-15T00:54:47;20.40;;;10.03;;
45368;SDS011;51342;55.250;37.668;2024-01-15T00:57:19;14.67;;;8.43;;
45368;SDS011;51342;55.250;37.668;2024-01-15T00:59:50;22.63;;;10.07;;
45368;SDS011;51342;55.250;37.668;2024-01-15T01:02:22;21.50;;;9.93;;
45368;SDS011;51342;55.250;37.668;2024-01-15T01:04:53;22.93;;;9.73;;
45368;SDS011;51342;55.250;37.668;2024-01-15T01:07:24;22.57;;;9.73;;
45368;SDS011;51342;55.250;37.668;2024-01-15T01:09:56;20.80;;;9.57;;
45368;SDS011;51342;55.250;37.668;2024-01-15T01:12:27;21.07;;;9.33;;
45368;SDS011;51342;55.250;37.668;2024-01-15T01:15:01;20.90;;;10.50;;
45368;SDS011;51342;55.250;37.668;2024-01-15T01:17:33;17.60;;;9.63;;
45368;SDS011;51342;55.250;37.668;2024-01-15T01:20:04;20.53;;;9.93;;
45368;SDS011;51342;55.250;37.668;2024-01-15T01:22:39;22.10;;;10.17;;
45368;SDS011;51342;55.250;37.668;2024-01-15T01:25:10;20.50;;;10.07;;
45368;SDS011;51342;55.250;37.668;2024-01-15T01:27:42;19.20;;;9.07;;
45368;SDS011;51342;55.250;37.668;2024-01-15T01:30:13;20.23;;;9.47;;
45368;SDS011;51342;55.250;37.668;2024-01-15T01:32:44;19.77;;;10.07;;
45368;SDS011;51342;55.250;37.668;2024-01-15T01:35:16;17.10;;;8.70;;
45368;SDS011;51342;55.250;37.668;2024-01-15T01:37:47;19.43;;;9.90;;
45368;SDS011;51342;55.250;37.668;2024-01-15T01:40:19;20.73;;;10.13;;
45368;SDS011;51342;55.250;37.668;2024-01-15T01:42:50;16.73;;;8.77;;
45368;SDS011;51342;55.250;37.668;2024-01-15T01:45:22;21.17;;;10.20;;
45368;SDS011;51342;55.250;37.668;2024-01-15T01:47:53;17.33;;;8.67;;
45368;SDS011;51342;55.250;37.668;2024-01-15T01:50:25;17.00;;;9.90;;
45368;SDS011;51342;55.250;37.668;2024-01-15T01:52:56;24.07;;;10.67;;
45368;SDS011;51342;55.250;37.668;2024-01-15T01:55:28;20.50;;;10.37;;
45368;SDS011;51342;55.250;37.668;2024-01-15T01:58:01;20.43;;;9.83;;
45368;SDS011;51342;55.250;37.668;2024-01-15T02:00:34;21.87;;;10.07;;
45368;SDS011;51342;55.250;37.668;2024-01-15T02:03:07;21.77;;;10.20;;
45368;SDS011;51342;55.250;37.668;2024-01-15T02:05:39;21.80;;;10.17;;
45368;SDS011;51342;55.250;37.668;2024-01-15T02:08:14;24.30;;;10.97;;
45368;SDS011;51342;55.250;37.668;2024-01-15T02:10:45;21.70;;;10.97;;
45368;SDS011;51342;55.250;37.668;2024-01-15T02:13:17;23.93;;;11.13;;
45368;SDS011;51342;55.250;37.668;2024-01-15T02:15:49;22.37;;;10.57;;
45368;SDS011;51342;55.250;37.668;2024-01-15T02:18:20;21.97;;;10.90;;
45368;SDS011;51342;55.250;37.668;2024-01-15T02:20:52;20.00;;;10.20;;
45368;SDS011;51342;55.250;37.668;2024-01-15T02:23:23;22.30;;;9.77;;
45368;SDS011;51342;55.250;37.668;2024-01-15T02:25:55;21.40;;;10.53;;
45368;SDS011;51342;55.250;37.668;2024-01-15T02:28:26;24.90;;;11.03;;
45368;SDS011;51342;55.250;37.668;2024-01-15T02:30:57;26.03;;;10.73;;
45368;SDS011;51342;55.250;37.668;2024-01-15T02:33:29;24.57;;;11.27;;
45368;SDS011;51342;55.250;37.668;2024-01-15T02:36:00;22.27;;;11.60;;
45368;SDS011;51342;55.250;37.668;2024-01-15T02:38:32;26.73;;;12.63;;
45368;SDS011;51342;55.250;37.668;2024-01-15T02:41:03;22.37;;;10.70;;
45368;SDS011;51342;55.250;37.668;2024-01-15T02:43:35;21.30;;;10.40;;
45368;SDS011;51342;55.250;37.668;2024-01-15T02:46:06;23.17;;;11.13;;
45368;SDS011;51342;55.250;37.668;2024-01-15T02:48:38;22.73;;;10.83;;
45368;SDS011;51342;55.250;37.668;2024-01-15T02:51:09;25.87;;;11.43;;
45368;SDS011;51342;55.250;37.668;2024-01-15T02:53:41;21.40;;;10.60;;
45368;SDS011;51342;55.250;37.668;2024-01-15T02:56:12;22.87;;;12.00;;
45368;SDS011;51342;55.250;37.668;2024-01-15T02:58:43;22.27;;;10.13;;
45368;SDS011;51342;55.250;37.668;2024-01-15T03:01:18;23.97;;;11.50;;
45368;SDS011;51342;55.250;37.668;2024-01-15T03:03:50;25.17;;;11.90;;
45368;SDS011;51342;55.250;37.668;2024-01-15T03:06:21;20.90;;;11.70;;
45368;SDS011;51342;55.250;37.668;2024-01-15T03:08:53;23.30;;;11.50;;
45368;SDS011;51342;55.250;37.668;2024-01-15T03:11:25;23.87;;;11.93;;
45368;SDS011;51342;55.250;37.668;2024-01-15T03:13:56;24.83;;;11.30;;
45368;SDS011;51342;55.250;37.668;2024-01-15T03:16:28;24.03;;;11.03;;
45368;SDS011;51342;55.250;37.668;2024-01-15T03:18:59;21.33;;;10.37;;
45368;SDS011;51342;55.250;37.668;2024-01-15T03:21:31;24.97;;;11.73;;
45368;SDS011;51342;55.250;37.668;2024-01-15T03:24:02;26.33;;;13.13;;
45368;SDS011;51342;55.250;37.668;2024-01-15T03:26:33;23.53;;;11.93;;
45368;SDS011;51342;55.250;37.668;2024-01-15T03:29:05;27.30;;;12.07;;
45368;SDS011;51342;55.250;37.668;2024-01-15T03:31:38;26.57;;;11.33;;
45368;SDS011;51342;55.250;37.668;2024-01-15T03:34:09;26.20;;;12.90;;
45368;SDS011;51342;55.250;37.668;2024-01-15T03:36:41;24.73;;;12.90;;
45368;SDS011;51342;55.250;37.668;2024-01-15T03:39:12;22.60;;;11.37;;
45368;SDS011;51342;55.250;37.668;2024-01-15T03:41:43;22.03;;;11.73;;
45368;SDS011;51342;55.250;37.668;2024-01-15T03:44:15;25.70;;;14.03;;
45368;SDS011;51342;55.250;37.668;2024-01-15T03:46:47;27.80;;;13.13;;
45368;SDS011;51342;55.250;37.668;2024-01-15T03:49:18;25.03;;;13.03;;
45368;SDS011;51342;55.250;37.668;2024-01-15T03:51:50;28.53;;;13.47;;
45368;SDS011;51342;55.250;37.668;2024-01-15T03:54:21;27.13;;;13.03;;
45368;SDS011;51342;55.250;37.668;2024-01-15T03:56:52;25.50;;;11.33;;
45368;SDS011;51342;55.250;37.668;2024-01-15T03:59:24;29.07;;;12.90;;
45368;SDS011;51342;55.250;37.668;2024-01-15T04:01:55;28.07;;;13.77;;
45368;SDS011;51342;55.250;37.668;2024-01-15T04:04:27;25.37;;;13.47;;
45368;SDS011;51342;55.250;37.668;2024-01-15T04:06:58;29.83;;;13.37;;
45368;SDS011;51342;55.250;37.668;2024-01-15T04:09:29;28.20;;;12.93;;
45368;SDS011;51342;55.250;37.668;2024-01-15T04:12:01;28.97;;;14.00;;
45368;SDS011;51342;55.250;37.668;2024-01-15T04:14:32;28.23;;;13.80;;
45368;SDS011;51342;55.250;37.668;2024-01-15T04:17:04;29.13;;;12.77;;
45368;SDS011;51342;55.250;37.668;2024-01-15T04:19:35;26.20;;;12.97;;
45368;SDS011;51342;55.250;37.668;2024-01-15T04:22:06;24.83;;;13.13;;
45368;SDS011;51342;55.250;37.668;2024-01-15T04:24:38;32.23;;;14.70;;
45368;SDS011;51342;55.250;37.668;2024-01-15T04:27:09;28.03;;;15.17;;
45368;SDS011;51342;55.250;37.668;2024-01-15T04:29:41;28.03;;;13.83;;
45368;SDS011;51342;55.250;37.668;2024-01-15T04:32:12;28.53;;;13.63;;
45368;SDS011;51342;55.250;37.668;2024-01-15T04:34:43;29.33;;;14.57;;
45368;SDS011;51342;55.250;37.668;2024-01-15T04:37:15;25.67;;;12.63;;
45368;SDS011;51342;55.250;37.668;2024-01-15T04:39:46;26.80;;;13.13;;
45368;SDS011;51342;55.250;37.668;2024-01-15T04:42:18;24.70;;;13.60;;
45368;SDS011;51342;55.250;37.668;2024-01-15T04:44:49;28.43;;;13.77;;
45368;SDS011;51342;55.250;37.668;2024-01-15T04:47:20;28.60;;;13.77;;
45368;SDS011;51342;55.250;37.668;2024-01-15T04:49:52;29.30;;;14.63;;
45368;SDS011;51342;55.250;37.668;2024-01-15T04:52:23;27.87;;;13.90;;
45368;SDS011;51342;55.250;37.668;2024-01-15T04:54:55;34.43;;;13.90;;
45368;SDS011;51342;55.250;37.668;2024-01-15T04:57:26;32.17;;;14.13;;
45368;SDS011;51342;55.250;37.668;2024-01-15T04:59:57;28.63;;;13.60;;
45368;SDS011;51342;55.250;37.668;2024-01-15T05:02:29;29.83;;;14.23;;
45368;SDS011;51342;55.250;37.668;2024-01-15T05:05:00;32.53;;;14.33;;
45368;SDS011;51342;55.250;37.668;2024-01-15T05:07:32;32.93;;;14.87;;
45368;SDS011;51342;55.250;37.668;2024-01-15T05:10:03;31.60;;;15.10;;
45368;SDS011;51342;55.250;37.668;2024-01-15T05:12:35;25.30;;;13.50;;
45368;SDS011;51342;55.250;37.668;2024-01-15T05:15:06;29.60;;;15.13;;
45368;SDS011;51342;55.250;37.668;2024-01-15T05:17:38;33.03;;;15.40;;
45368;SDS011;51342;55.250;37.668;2024-01-15T05:20:10;31.23;;;14.70;;
45368;SDS011;51342;55.250;37.668;2024-01-15T05:22:41;31.60;;;15.07;;
45368;SDS011;51342;55.250;37.668;2024-01-15T05:25:13;31.40;;;14.47;;
45368;SDS011;51342;55.250;37.668;2024-01-15T05:27:44;31.17;;;15.33;;
45368;SDS011;51342;55.250;37.668;2024-01-15T05:30:15;28.90;;;14.63;;
45368;SDS011;51342;55.250;37.668;2024-01-15T05:32:47;33.00;;;14.90;;
45368;SDS011;51342;55.250;37.668;2024-01-15T05:35:18;30.90;;;14.57;;
45368;SDS011;51342;55.250;37.668;2024-01-15T05:37:50;26.63;;;14.20;;
45368;SDS011;51342;55.250;37.668;2024-01-15T05:40:21;28.27;;;14.33;;
45368;SDS011;51342;55.250;37.668;2024-01-15T05:42:53;30.10;;;16.10;;
45368;SDS011;51342;55.250;37.668;2024-01-15T05:45:26;27.30;;;14.10;;
45368;SDS011;51342;55.250;37.668;2024-01-15T05:47:58;27.43;;;14.03;;
45368;SDS011;51342;55.250;37.668;2024-01-15T05:50:29;30.20;;;14.90;;
45368;SDS011;51342;55.250;37.668;2024-01-15T05:53:01;32.13;;;15.23;;
45368;SDS011;51342;55.250;37.668;2024-01-15T05:55:34;30.43;;;15.83;;
45368;SDS011;51342;55.250;37.668;2024-01-15T05:58:07;31.03;;;14.30;;
45368;SDS011;51342;55.250;37.668;2024-01-15T06:00:38;29.80;;;15.00;;
45368;SDS011;51342;55.250;37.668;2024-01-15T06:03:10;31.93;;;14.50;;
45368;SDS011;51342;55.250;37.668;2024-01-15T06:05:41;30.73;;;14.77;;
45368;SDS011;51342;55.250;37.668;2024-01-15T06:08:12;30.53;;;14.43;;
45368;SDS011;51342;55.250;37.668;2024-01-15T06:10:45;36.17;;;14.87;;
45368;SDS011;51342;55.250;37.668;2024-01-15T06:13:16;36.23;;;15.93;;
45368;SDS011;51342;55.250;37.668;2024-01-15T06:15:48;29.53;;;15.13;;
45368;SDS011;51342;55.250;37.668;2024-01-15T06:18:19;30.33;;;15.37;;
45368;SDS011;51342;55.250;37.668;2024-01-15T06:20:51;33.37;;;15.27;;
45368;SDS011;51342;55.250;37.668;2024-01-15T06:23:22;32.23;;;14.93;;
45368;SDS011;51342;55.250;37.668;2024-01-15T06:25:54;29.10;;;14.87;;
45368;SDS011;51342;55.250;37.668;2024-01-15T06:28:25;35.03;;;15.77;;
45368;SDS011;51342;55.250;37.668;2024-01-15T06:30:57;29.37;;;15.47;;
45368;SDS011;51342;55.250;37.668;2024-01-15T06:33:29;33.87;;;15.17;;
45368;SDS011;51342;55.250;37.668;2024-01-15T06:36:00;28.60;;;14.67;;
45368;SDS011;51342;55.250;37.668;2024-01-15T06:38:31;31.67;;;14.90;;
45368;SDS011;51342;55.250;37.668;2024-01-15T06:41:03;34.77;;;15.80;;
45368;SDS011;51342;55.250;37.668;2024-01-15T06:43:34;31.23;;;15.47;;
45368;SDS011;51342;55.250;37.668;2024-01-15T06:46:06;32.40;;;15.47;;
45368;SDS011;51342;55.250;37.668;2024-01-15T06:48:38;32.00;;;15.53;;
45368;SDS011;51342;55.250;37.668;2024-01-15T06:51:09;29.33;;;15.27;;
45368;SDS011;51342;55.250;37.668;2024-01-15T06:53:40;29.90;;;15.17;;
45368;SDS011;51342;55.250;37.668;2024-01-15T06:56:12;29.93;;;15.20;;
45368;SDS011;51342;55.250;37.668;2024-01-15T06:58:43;29.83;;;14.43;;
45368;SDS011;51342;55.250;37.668;2024-01-15T07:01:15;30.77;;;14.60;;
45368;SDS011;51342;55.250;37.668;2024-01-15T07:03:46;30.87;;;14.47;;
45368;SDS011;51342;55.250;37.668;2024-01-15T07:06:18;30.33;;;15.43;;
45368;SDS011;51342;55.250;37.668;2024-01-15T07:08:49;28.10;;;14.33;;
45368;SDS011;51342;55.250;37.668;2024-01-15T07:11:21;29.10;;;14.83;;
45368;SDS011;51342;55.250;37.668;2024-01-15T07:13:52;28.83;;;14.43;;
45368;SDS011;51342;55.250;37.668;2024-01-15T07:16:25;26.37;;;14.63;;
45368;SDS011;51342;55.250;37.668;2024-01-15T07:18:56;28.30;;;14.07;;
45368;SDS011;51342;55.250;37.668;2024-01-15T07:21:28;29.27;;;13.93;;
45368;SDS011;51342;55.250;37.668;2024-01-15T07:23:59;27.33;;;15.00;;
45368;SDS011;51342;55.250;37.668;2024-01-15T07:26:30;28.27;;;14.40;;
45368;SDS011;51342;55.250;37.668;2024-01-15T07:29:02;26.80;;;14.03;;
45368;SDS011;51342;55.250;37.668;2024-01-15T07:31:34;23.13;;;13.20;;
45368;SDS011;51342;55.250;37.668;2024-01-15T07:34:05;25.17;;;13.33;;
45368;SDS011;51342;55.250;37.668;2024-01-15T07:36:37;23.87;;;12.70;;
45368;SDS011;51342;55.250;37.668;2024-01-15T07:39:08;26.83;;;14.13;;
45368;SDS011;51342;55.250;37.668;2024-01-15T07:41:39;27.00;;;13.13;;
45368;SDS011;51342;55.250;37.668;2024-01-15T07:44:11;25.07;;;12.90;;
45368;SDS011;51342;55.250;37.668;2024-01-15T07:46:46;27.63;;;13.93;;
45368;SDS011;51342;55.250;37.668;2024-01-15T07:49:18;25.83;;;14.60;;
45368;SDS011;51342;55.250;37.668;2024-01-15T07:51:49;26.07;;;13.80;;
45368;SDS011;51342;55.250;37.668;2024-01-15T07:54:21;23.87;;;13.63;;
45368;SDS011;51342;55.250;37.668;2024-01-15T07:56:56;25.57;;;12.70;;
45368;SDS011;51342;55.250;37.668;2024-01-15T07:59:28;20.60;;;12.53;;
45368;SDS011;51342;55.250;37.668;2024-01-15T08:02:00;23.07;;;12.13;;
45368;SDS011;51342;55.250;37.668;2024-01-15T08:04:32;23.57;;;12.23;;
45368;SDS011;51342;55.250;37.668;2024-01-15T08:07:04;21.00;;;12.07;;
45368;SDS011;51342;55.250;37.668;2024-01-15T08:09:37;19.73;;;11.60;;
45368;SDS011;51342;55.250;37.668;2024-01-15T08:12:09;21.37;;;11.87;;
45368;SDS011;51342;55.250;37.668;2024-01-15T08:14:41;22.10;;;12.57;;
45368;SDS011;51342;55.250;37.668;2024-01-15T08:17:12;22.83;;;12.70;;
45368;SDS011;51342;55.250;37.668;2024-01-15T08:19:43;22.33;;;11.33;;
45368;SDS011;51342;55.250;37.668;2024-01-15T08:22:15;23.73;;;12.80;;
45368;SDS011;51342;55.250;37.668;2024-01-15T08:24:46;19.63;;;12.00;;
45368;SDS011;51342;55.250;37.668;2024-01-15T08:27:18;22.47;;;12.50;;
45368;SDS011;51342;55.250;37.668;2024-01-15T08:29:50;22.20;;;12.10;;
45368;SDS011;51342;55.250;37.668;2024-01-15T08:32:22;25.33;;;12.20;;
45368;SDS011;51342;55.250;37.668;2024-01-15T08:34:53;23.83;;;12.43;;
45368;SDS011;51342;55.250;37.668;2024-01-15T08:37:25;19.63;;;11.97;;
45368;SDS011;51342;55.250;37.668;2024-01-15T08:39:56;22.97;;;12.00;;
45368;SDS011;51342;55.250;37.668;2024-01-15T08:42:27;22.10;;;11.97;;
45368;SDS011;51342;55.250;37.668;2024-01-15T08:44:59;21.00;;;11.70;;
45368;SDS011;51342;55.250;37.668;2024-01-15T08:47:30;22.33;;;11.93;;
45368;SDS011;51342;55.250;37.668;2024-01-15T08:50:02;24.73;;;13.30;;
45368;SDS011;51342;55.250;37.668;2024-01-15T08:52:34;22.30;;;11.97;;
45368;SDS011;51342;55.250;37.668;2024-01-15T08:55:05;23.63;;;12.43;;
45368;SDS011;51342;55.250;37.668;2024-01-15T08:57:38;21.97;;;11.40;;
45368;SDS011;51342;55.250;37.668;2024-01-15T09:00:09;22.20;;;11.93;;
45368;SDS011;51342;55.250;37.668;2024-01-15T09:02:41;22.70;;;11.57;;
45368;SDS011;51342;55.250;37.668;2024-01-15T09:05:13;21.43;;;11.30;;
45368;SDS011;51342;55.250;37.668;2024-01-15T09:07:45;21.53;;;11.63;;
45368;SDS011;51342;55.250;37.668;2024-01-15T09:10:17;21.17;;;12.13;;
45368;SDS011;51342;55.250;37.668;2024-01-15T09:12:49;21.97;;;12.00;;
45368;SDS011;51342;55.250;37.668;2024-01-15T09:15:20;23.37;;;12.73;;
45368;SDS011;51342;55.250;37.668;2024-01-15T09:17:52;20.97;;;11.40;;
45368;SDS011;51342;55.250;37.668;2024-01-15T09:20:23;20.03;;;11.90;;
45368;SDS011;51342;55.250;37.668;2024-01-15T09:22:56;20.47;;;11.90;;
45368;SDS011;51342;55.250;37.668;2024-01-15T09:25:28;21.10;;;11.27;;
45368;SDS011;51342;55.250;37.668;2024-01-15T09:28:00;23.87;;;12.23;;
45368;SDS011;51342;55.250;37.668;2024-01-15T09:30:31;19.70;;;11.33;;
45368;SDS011;51342;55.250;37.668;2024-01-15T09:33:02;20.43;;;10.90;;
45368;SDS011;51342;55.250;37.668;2024-01-15T09:35:34;20.07;;;10.67;;
45368;SDS011;51342;55.250;37.668;2024-01-15T09:38:05;20.80;;;11.60;;
45368;SDS011;51342;55.250;37.668;2024-01-15T09:40:37;20.37;;;11.57;;
45368;SDS011;51342;55.250;37.668;2024-01-15T09:43:09;21.03;;;11.20;;
45368;SDS011;51342;55.250;37.668;2024-01-15T09:45:41;18.83;;;10.40;;
45368;SDS011;51342;55.250;37.668;2024-01-15T09:48:14;22.57;;;10.77;;
45368;SDS011;51342;55.250;37.668;2024-01-15T09:50:45;18.43;;;10.87;;
45368;SDS011;51342;55.250;37.668;2024-01-15T09:53:17;22.47;;;10.83;;
45368;SDS011;51342;55.250;37.668;2024-01-15T09:55:49;22.03;;;12.30;;
45368;SDS011;51342;55.250;37.668;2024-01-15T09:58:21;19.77;;;10.70;;
45368;SDS011;51342;55.250;37.668;2024-01-15T10:00:53;20.20;;;12.03;;
45368;SDS011;51342;55.250;37.668;2024-01-15T10:03:25;19.53;;;11.27;;
45368;SDS011;51342;55.250;37.668;2024-01-15T10:05:57;18.73;;;11.00;;
45368;SDS011;51342;55.250;37.668;2024-01-15T10:08:30;17.10;;;10.27;;
45368;SDS011;51342;55.250;37.668;2024-01-15T10:11:01;18.30;;;10.90;;
45368;SDS011;51342;55.250;37.668;2024-01-15T10:13:35;19.17;;;10.57;;
45368;SDS011;51342;55.250;37.668;2024-01-15T10:16:07;18.07;;;10.33;;
45368;SDS011;51342;55.250;37.668;2024-01-15T10:18:38;20.03;;;10.93;;
45368;SDS011;51342;55.250;37.668;2024-01-15T10:21:10;17.97;;;10.77;;
45368;SDS011;51342;55.250;37.668;2024-01-15T10:23:42;18.93;;;10.77;;
45368;SDS011;51342;55.250;37.668;2024-01-15T10:26:13;17.87;;;10.73;;
45368;SDS011;51342;55.250;37.668;2024-01-15T10:28:44;20.13;;;10.93;;
45368;SDS011;51342;55.250;37.668;2024-01-15T10:31:16;19.33;;;10.80;;
45368;SDS011;51342;55.250;37.668;2024-01-15T10:33:50;18.73;;;11.03;;
45368;SDS011;51342;55.250;37.668;2024-01-15T10:36:22;17.23;;;10.10;;
45368;SDS011;51342;55.250;37.668;2024-01-15T10:38:53;22.53;;;11.63;;
45368;SDS011;51342;55.250;37.668;2024-01-15T10:41:28;19.37;;;11.00;;
45368;SDS011;51342;55.250;37.668;2024-01-15T10:44:00;18.07;;;10.63;;
45368;SDS011;51342;55.250;37.668;2024-01-15T10:46:32;19.50;;;11.07;;
45368;SDS011;51342;55.250;37.668;2024-01-15T10:49:05;18.93;;;10.60;;
45368;SDS011;51342;55.250;37.668;2024-01-15T10:51:38;18.73;;;10.83;;
45368;SDS011;51342;55.250;37.668;2024-01-15T10:54:09;19.63;;;11.30;;
45368;SDS011;51342;55.250;37.668;2024-01-15T10:56:45;18.27;;;10.47;;
45368;SDS011;51342;55.250;37.668;2024-01-15T10:59:18;21.67;;;11.27;;
45368;SDS011;51342;55.250;37.668;2024-01-15T11:01:52;21.90;;;11.50;;
45368;SDS011;51342;55.250;37.668;2024-01-15T11:04:24;18.17;;;10.57;;
45368;SDS011;51342;55.250;37.668;2024-01-15T11:06:59;20.40;;;10.90;;
45368;SDS011;51342;55.250;37.668;2024-01-15T11:09:31;18.07;;;11.03;;
45368;SDS011;51342;55.250;37.668;2024-01-15T11:12:12;21.53;;;11.83;;
45368;SDS011;51342;55.250;37.668;2024-01-15T11:14:47;21.47;;;11.03;;
45368;SDS011;51342;55.250;37.668;2024-01-15T11:17:20;23.60;;;12.70;;
45368;SDS011;51342;55.250;37.668;2024-01-15T11:19:51;18.57;;;11.47;;
45368;SDS011;51342;55.250;37.668;2024-01-15T11:25:12;20.70;;;11.38;;
45368;SDS011;51342;55.250;37.668;2024-01-15T11:27:46;20.27;;;11.03;;
45368;SDS011;51342;55.250;37.668;2024-01-15T11:30:24;20.40;;;11.35;;
45368;SDS011;51342;55.250;37.668;2024-01-15T11:32:56;20.67;;;11.80;;
45368;SDS011;51342;55.250;37.668;2024-01-15T11:35:47;21.07;;;10.83;;
45368;SDS011;51342;55.250;37.668;2024-01-15T11:38:29;19.57;;;11.13;;
45368;SDS011;51342;55.250;37.668;2024-01-15T11:41:00;21.73;;;12.00;;
45368;SDS011;51342;55.250;37.668;2024-01-15T11:43:32;20.67;;;11.37;;
45368;SDS011;51342;55.250;37.668;2024-01-15T11:46:04;18.63;;;10.63;;
45368;SDS011;51342;55.250;37.668;2024-01-15T11:48:43;20.80;;;10.93;;
45368;SDS011;51342;55.250;37.668;2024-01-15T11:51:16;19.03;;;10.73;;
45368;SDS011;51342;55.250;37.668;2024-01-15T11:53:49;18.67;;;11.13;;
45368;SDS011;51342;55.250;37.668;2024-01-15T11:56:26;17.00;;;9.90;;
45368;SDS011;51342;55.250;37.668;2024-01-15T11:58:58;21.00;;;11.73;;
45368;SDS011;51342;55.250;37.668;2024-01-15T12:01:29;18.93;;;10.33;;
45368;SDS011;51342;55.250;37.668;2024-01-15T12:04:01;18.47;;;11.10;;
45368;SDS011;51342;55.250;37.668;2024-01-15T12:06:34;19.93;;;11.33;;
45368;SDS011;51342;55.250;37.668;2024-01-15T12:09:06;18.07;;;11.07;;
45368;SDS011;51342;55.250;37.668;2024-01-15T12:11:38;23.00;;;12.43;;
45368;SDS011;51342;55.250;37.668;2024-01-15T12:14:18;18.43;;;11.37;;
45368;SDS011;51342;55.250;37.668;2024-01-15T12:16:50;20.87;;;10.77;;
45368;SDS011;51342;55.250;37.668;2024-01-15T12:19:22;19.13;;;11.40;;
45368;SDS011;51342;55.250;37.668;2024-01-15T12:21:54;19.67;;;10.90;;
45368;SDS011;51342;55.250;37.668;2024-01-15T12:24:25;18.60;;;10.70;;
45368;SDS011;51342;55.250;37.668;2024-01-15T12:26:57;21.30;;;11.00;;
45368;SDS011;51342;55.250;37.668;2024-01-15T12:29:28;19.80;;;10.63;;
45368;SDS011;51342;55.250;37.668;2024-01-15T12:32:01;18.87;;;10.60;;
45368;SDS011;51342;55.250;37.668;2024-01-15T12:34:32;18.40;;;11.00;;
45368;SDS011;51342;55.250;37.668;2024-01-15T12:37:03;20.30;;;11.70;;
45368;SDS011;51342;55.250;37.668;2024-01-15T12:39:35;22.43;;;12.10;;
45368;SDS011;51342;55.250;37.668;2024-01-15T12:42:06;19.50;;;11.93;;
45368;SDS011;51342;55.250;37.668;2024-01-15T12:44:38;21.13;;;12.67;;
45368;SDS011;51342;55.250;37.668;2024-01-15T12:47:10;19.10;;;11.80;;
45368;SDS011;51342;55.250;37.668;2024-01-15T12:49:41;20.57;;;11.13;;
45368;SDS011;51342;55.250;37.668;2024-01-15T12:52:13;20.03;;;11.63;;
45368;SDS011;51342;55.250;37.668;2024-01-15T12:54:44;21.77;;;11.60;;
45368;SDS011;51342;55.250;37.668;2024-01-15T12:57:16;22.03;;;11.87;;
45368;SDS011;51342;55.250;37.668;2024-01-15T12:59:48;21.67;;;11.73;;
45368;SDS011;51342;55.250;37.668;2024-01-15T13:02:20;22.13;;;12.83;;
45368;SDS011;51342;55.250;37.668;2024-01-15T13:04:52;22.07;;;11.70;;
45368;SDS011;51342;55.250;37.668;2024-01-15T13:07:25;24.10;;;12.97;;
45368;SDS011;51342;55.250;37.668;2024-01-15T13:09:56;24.30;;;12.43;;
45368;SDS011;51342;55.250;37.668;2024-01-15T13:12:28;25.73;;;12.63;;
45368;SDS011;51342;55.250;37.668;2024-01-15T13:14:59;23.23;;;12.83;;
45368;SDS011;51342;55.250;37.668;2024-01-15T13:17:31;20.77;;;11.27;;
45368;SDS011;51342;55.250;37.668;2024-01-15T13:20:02;20.73;;;11.13;;
45368;SDS011;51342;55.250;37.668;2024-01-15T13:22:34;19.50;;;11.13;;
45368;SDS011;51342;55.250;37.668;2024-01-15T13:25:06;20.77;;;10.97;;
45368;SDS011;51342;55.250;37.668;2024-01-15T13:27:38;20.33;;;10.70;;
45368;SDS011;51342;55.250;37.668;2024-01-15T13:30:10;21.73;;;11.20;;
45368;SDS011;51342;55.250;37.668;2024-01-15T13:32:42;18.13;;;11.20;;
45368;SDS011;51342;55.250;37.668;2024-01-15T13:35:13;20.27;;;11.07;;
45368;SDS011;51342;55.250;37.668;2024-01-15T13:37:45;19.47;;;10.53;;
45368;SDS011;51342;55.250;37.668;2024-01-15T13:40:16;20.57;;;10.57;;
45368;SDS011;51342;55.250;37.668;2024-01-15T13:42:50;18.87;;;10.83;;
45368;SDS011;51342;55.250;37.668;2024-01-15T13:45:23;20.37;;;11.37;;
45368;SDS011;51342;55.250;37.668;2024-01-15T13:47:54;21.00;;;10.87;;
45368;SDS011;51342;55.250;37.668;2024-01-15T13:50:26;20.97;;;11.10;;
45368;SDS011;51342;55.250;37.668;2024-01-15T13:52:58;21.73;;;11.23;;
45368;SDS011;51342;55.250;37.668;2024-01-15T13:55:30;19.37;;;10.97;;
45368;SDS011;51342;55.250;37.668;2024-01-15T13:58:01;19.93;;;11.40;;
45368;SDS011;51342;55.250;37.668;2024-01-15T14:00:36;21.87;;;11.40;;
45368;SDS011;51342;55.250;37.668;2024-01-15T14:03:07;24.03;;;12.43;;
45368;SDS011;51342;55.250;37.668;2024-01-15T14:05:39;23.47;;;12.40;;
45368;SDS011;51342;55.250;37.668;2024-01-15T14:08:11;22.60;;;11.77;;
45368;SDS011;51342;55.250;37.668;2024-01-15T14:10:42;23.40;;;12.10;;
45368;SDS011;51342;55.250;37.668;2024-01-15T14:13:14;24.60;;;12.73;;
45368;SDS011;51342;55.250;37.668;2024-01-15T14:15:45;22.83;;;12.43;;
45368;SDS011;51342;55.250;37.668;2024-01-15T14:18:19;21.87;;;12.47;;
45368;SDS011;51342;55.250;37.668;2024-01-15T14:20:51;22.57;;;12.30;;
45368;SDS011;51342;55.250;37.668;2024-01-15T14:23:22;23.87;;;13.07;;
45368;SDS011;51342;55.250;37.668;2024-01-15T14:25:54;25.53;;;13.37;;
45368;SDS011;51342;55.250;37.668;2024-01-15T14:28:25;24.30;;;12.37;;
45368;SDS011;51342;55.250;37.668;2024-01-15T14:30:57;24.57;;;12.07;;
45368;SDS011;51342;55.250;37.668;2024-01-15T14:33:31;24.97;;;13.80;;
45368;SDS011;51342;55.250;37.668;2024-01-15T14:36:03;26.07;;;12.77;;
45368;SDS011;51342;55.250;37.668;2024-01-15T14:38:34;28.13;;;13.87;;
45368;SDS011;51342;55.250;37.668;2024-01-15T14:41:06;23.43;;;13.07;;
45368;SDS011;51342;55.250;37.668;2024-01-15T14:43:37;22.90;;;12.50;;